TAF KLEX
KLEX 280538Z 2806/2906 24009KT P6SM SKC FM281100 27007KT P6SM SCT200 FM281500 29010G17KT P6SM SCT200 FM290000 31006KT P6SM FEW200=
METAR KLEX
WC KLEX
WS KLEX
WV KLEX